Terminal Aerodrome Forecast
Issued by NWS Northern Indiana

Home | Current Version | Previous Version | Text Only | Print | Product List | Glossary On
Versions: 1 2 3 4 5 6 7 8 9 10 11 12 13 14 15 16 17 18
121
FTUS43 KIWX 041515 AAA
TAFFWA
TAF AMD
KFWA 041515Z 0415/0512 29012G22KT P6SM VCSH BKN017 OVC045
     FM041700 31018G26KT P6SM OVC016
     FM050200 33012KT P6SM OVC010=

USA.gov is the U.S. government's official web portal to all federal, state and local government web resources and services.